sensor_id;sensor_type;location;lat;lon;timestamp;pressure;altitude;pressure_sealevel;temperature;humidity
52957;BME280;38819;42.692;23.342;2023-04-23T00:02:14;95251.06;;;11.15;67.11
52957;BME280;38819;42.692;23.342;2023-04-23T00:04:48;95255.66;;;11.14;66.95
52957;BME280;38819;42.692;23.342;2023-04-23T00:07:14;95240.97;;;11.20;66.53
52957;BME280;38819;42.692;23.342;2023-04-23T00:09:42;95252.72;;;11.29;66.40
52957;BME280;38819;42.692;23.342;2023-04-23T00:12:08;95261.84;;;11.34;66.02
52957;BME280;38819;42.692;23.342;2023-04-23T00:14:34;95250.81;;;11.30;66.00
52957;BME280;38819;42.692;23.342;2023-04-23T00:16:59;95254.09;;;11.27;66.04
52957;BME280;38819;42.692;23.342;2023-04-23T00:19:25;95249.75;;;11.12;66.67
52957;BME280;38819;42.692;23.342;2023-04-23T00:21:50;95251.16;;;11.09;67.20
52957;BME280;38819;42.692;23.342;2023-04-23T00:24:16;95253.47;;;11.16;66.97
52957;BME280;38819;42.692;23.342;2023-04-23T00:26:41;95258.97;;;11.11;66.97
52957;BME280;38819;42.692;23.342;2023-04-23T00:29:07;95266.75;;;11.12;66.88
52957;BME280;38819;42.692;23.342;2023-04-23T00:31:32;95251.78;;;11.20;66.81
52957;BME280;38819;42.692;23.342;2023-04-23T00:33:58;95264.75;;;11.04;67.54
52957;BME280;38819;42.692;23.342;2023-04-23T00:36:23;95256.47;;;10.96;67.76
52957;BME280;38819;42.692;23.342;2023-04-23T00:38:50;95243.63;;;10.87;67.74
52957;BME280;38819;42.692;23.342;2023-04-23T00:41:16;95257.44;;;10.86;67.96
52957;BME280;38819;42.692;23.342;2023-04-23T00:43:41;95245.75;;;10.90;67.75
52957;BME280;38819;42.692;23.342;2023-04-23T00:46:08;95251.81;;;10.82;68.05
52957;BME280;38819;42.692;23.342;2023-04-23T00:48:35;95254.50;;;10.82;67.61
52957;BME280;38819;42.692;23.342;2023-04-23T00:51:05;95251.09;;;10.77;67.86
52957;BME280;38819;42.692;23.342;2023-04-23T00:53:31;95258.16;;;10.72;68.10
52957;BME280;38819;42.692;23.342;2023-04-23T00:55:59;95256.44;;;10.63;68.76
52957;BME280;38819;42.692;23.342;2023-04-23T00:58:26;95260.88;;;10.72;68.32
52957;BME280;38819;42.692;23.342;2023-04-23T01:00:52;95259.78;;;10.73;68.12
52957;BME280;38819;42.692;23.342;2023-04-23T01:03:18;95261.22;;;10.66;67.96
52957;BME280;38819;42.692;23.342;2023-04-23T01:05:46;95256.94;;;10.65;67.78
52957;BME280;38819;42.692;23.342;2023-04-23T01:08:14;95257.50;;;10.62;67.60
52957;BME280;38819;42.692;23.342;2023-04-23T01:10:44;95259.84;;;10.49;67.74
52957;BME280;38819;42.692;23.342;2023-04-23T01:13:11;95251.66;;;10.35;68.71
52957;BME280;38819;42.692;23.342;2023-04-23T01:15:37;95259.78;;;10.30;69.28
52957;BME280;38819;42.692;23.342;2023-04-23T01:18:03;95252.31;;;10.22;69.47
52957;BME280;38819;42.692;23.342;2023-04-23T01:20:29;95244.81;;;10.19;69.72
52957;BME280;38819;42.692;23.342;2023-04-23T01:22:54;95251.47;;;10.27;69.20
52957;BME280;38819;42.692;23.342;2023-04-23T01:25:20;95254.16;;;10.27;69.28
52957;BME280;38819;42.692;23.342;2023-04-23T01:27:46;95242.63;;;10.21;69.08
52957;BME280;38819;42.692;23.342;2023-04-23T01:30:12;95245.06;;;10.23;68.71
52957;BME280;38819;42.692;23.342;2023-04-23T01:32:38;95251.75;;;10.25;68.79
52957;BME280;38819;42.692;23.342;2023-04-23T01:35:04;95254.16;;;10.27;68.63
52957;BME280;38819;42.692;23.342;2023-04-23T01:37:32;95256.34;;;10.25;68.85
52957;BME280;38819;42.692;23.342;2023-04-23T01:39:58;95264.44;;;10.25;68.83
52957;BME280;38819;42.692;23.342;2023-04-23T01:42:24;95263.66;;;10.24;68.79
52957;BME280;38819;42.692;23.342;2023-04-23T01:44:49;95261.41;;;10.31;68.58
52957;BME280;38819;42.692;23.342;2023-04-23T01:47:15;95268.50;;;10.22;68.79
52957;BME280;38819;42.692;23.342;2023-04-23T01:49:41;95261.53;;;10.21;68.98
52957;BME280;38819;42.692;23.342;2023-04-23T01:52:06;95266.94;;;10.21;68.84
52957;BME280;38819;42.692;23.342;2023-04-23T01:54:32;95267.78;;;10.16;68.87
52957;BME280;38819;42.692;23.342;2023-04-23T01:56:57;95269.56;;;10.26;68.92
52957;BME280;38819;42.692;23.342;2023-04-23T01:59:23;95270.88;;;10.29;68.22
52957;BME280;38819;42.692;23.342;2023-04-23T02:01:49;95272.63;;;10.19;68.29
52957;BME280;38819;42.692;23.342;2023-04-23T02:04:15;95273.03;;;10.08;68.75
52957;BME280;38819;42.692;23.342;2023-04-23T02:06:43;95267.91;;;10.06;68.59
52957;BME280;38819;42.692;23.342;2023-04-23T02:09:10;95265.09;;;9.92;68.69
52957;BME280;38819;42.692;23.342;2023-04-23T02:11:35;95267.31;;;9.85;69.09
52957;BME280;38819;42.692;23.342;2023-04-23T02:14:02;95277.59;;;9.83;69.49
52957;BME280;38819;42.692;23.342;2023-04-23T02:16:27;95271.53;;;9.72;69.67
52957;BME280;38819;42.692;23.342;2023-04-23T02:18:53;95277.88;;;9.81;69.38
52957;BME280;38819;42.692;23.342;2023-04-23T02:21:21;95272.31;;;9.73;69.58
52957;BME280;38819;42.692;23.342;2023-04-23T02:23:47;95269.69;;;9.68;69.82
52957;BME280;38819;42.692;23.342;2023-04-23T02:26:12;95272.13;;;9.64;69.87
52957;BME280;38819;42.692;23.342;2023-04-23T02:28:37;95268.09;;;9.61;70.13
52957;BME280;38819;42.692;23.342;2023-04-23T02:31:03;95270.75;;;9.67;69.74
52957;BME280;38819;42.692;23.342;2023-04-23T02:33:29;95268.06;;;9.67;70.13
52957;BME280;38819;42.692;23.342;2023-04-23T02:35:54;95269.16;;;9.66;69.69
52957;BME280;38819;42.692;23.342;2023-04-23T02:38:20;95272.19;;;9.59;70.03
52957;BME280;38819;42.692;23.342;2023-04-23T02:40:45;95270.56;;;9.58;70.00
52957;BME280;38819;42.692;23.342;2023-04-23T02:43:10;95272.44;;;9.62;70.00
52957;BME280;38819;42.692;23.342;2023-04-23T02:45:36;95269.78;;;9.57;70.13
52957;BME280;38819;42.692;23.342;2023-04-23T02:48:01;95276.25;;;9.56;69.83
52957;BME280;38819;42.692;23.342;2023-04-23T02:50:27;95270.91;;;9.51;69.78
52957;BME280;38819;42.692;23.342;2023-04-23T02:52:52;95269.28;;;9.50;70.00
52957;BME280;38819;42.692;23.342;2023-04-23T02:55:17;95275.16;;;9.57;69.86
52957;BME280;38819;42.692;23.342;2023-04-23T02:57:43;95270.81;;;9.61;69.50
52957;BME280;38819;42.692;23.342;2023-04-23T03:00:10;95274.16;;;9.48;69.76
52957;BME280;38819;42.692;23.342;2023-04-23T03:02:37;95276.69;;;9.39;70.15
52957;BME280;38819;42.692;23.342;2023-04-23T03:05:03;95281.22;;;9.44;70.06
52957;BME280;38819;42.692;23.342;2023-04-23T03:07:29;95283.31;;;9.47;70.17
52957;BME280;38819;42.692;23.342;2023-04-23T03:09:54;95281.78;;;9.41;70.12
52957;BME280;38819;42.692;23.342;2023-04-23T03:12:19;95279.09;;;9.41;70.40
52957;BME280;38819;42.692;23.342;2023-04-23T03:14:45;95278.56;;;9.39;70.38
52957;BME280;38819;42.692;23.342;2023-04-23T03:17:10;95278.31;;;9.35;70.22
52957;BME280;38819;42.692;23.342;2023-04-23T03:19:36;95287.47;;;9.39;70.07
52957;BME280;38819;42.692;23.342;2023-04-23T03:22:01;95285.31;;;9.36;70.00
52957;BME280;38819;42.692;23.342;2023-04-23T03:24:31;95290.38;;;9.43;70.03
52957;BME280;38819;42.692;23.342;2023-04-23T03:26:56;95294.16;;;9.42;69.73
52957;BME280;38819;42.692;23.342;2023-04-23T03:29:22;95290.56;;;9.52;69.71
52957;BME280;38819;42.692;23.342;2023-04-23T03:31:48;95288.53;;;9.38;69.60
52957;BME280;38819;42.692;23.342;2023-04-23T03:34:13;95291.50;;;9.37;69.79
52957;BME280;38819;42.692;23.342;2023-04-23T03:36:39;95293.38;;;9.41;69.63
52957;BME280;38819;42.692;23.342;2023-04-23T03:39:04;95285.66;;;9.30;69.87
52957;BME280;38819;42.692;23.342;2023-04-23T03:41:30;95295.69;;;9.24;70.07
52957;BME280;38819;42.692;23.342;2023-04-23T03:43:55;95291.91;;;9.20;70.35
52957;BME280;38819;42.692;23.342;2023-04-23T03:46:20;95295.41;;;9.25;70.09
52957;BME280;38819;42.692;23.342;2023-04-23T03:48:46;95296.19;;;9.26;69.76
52957;BME280;38819;42.692;23.342;2023-04-23T03:51:11;95303.47;;;9.25;70.02
52957;BME280;38819;42.692;23.342;2023-04-23T03:53:37;95307.25;;;9.24;70.15
52957;BME280;38819;42.692;23.342;2023-04-23T03:56:02;95301.81;;;9.30;69.94
52957;BME280;38819;42.692;23.342;2023-04-23T03:58:28;95303.81;;;9.48;69.30
52957;BME280;38819;42.692;23.342;2023-04-23T04:00:53;95303.81;;;9.48;69.51
52957;BME280;38819;42.692;23.342;2023-04-23T04:03:18;95313.25;;;9.51;69.08
52957;BME280;38819;42.692;23.342;2023-04-23T04:05:44;95313.72;;;9.58;68.79
52957;BME280;38819;42.692;23.342;2023-04-23T04:08:09;95311.03;;;9.58;68.68
52957;BME280;38819;42.692;23.342;2023-04-23T04:10:35;95319.84;;;9.63;68.37
52957;BME280;38819;42.692;23.342;2023-04-23T04:13:01;95313.75;;;9.53;68.45
52957;BME280;38819;42.692;23.342;2023-04-23T04:15:26;95319.44;;;9.51;68.65
52957;BME280;38819;42.692;23.342;2023-04-23T04:17:51;95311.88;;;9.53;68.46
52957;BME280;38819;42.692;23.342;2023-04-23T04:20:17;95320.75;;;9.54;68.53
52957;BME280;38819;42.692;23.342;2023-04-23T04:22:42;95326.69;;;9.56;68.46
52957;BME280;38819;42.692;23.342;2023-04-23T04:25:08;95325.53;;;9.62;68.47
52957;BME280;38819;42.692;23.342;2023-04-23T04:27:34;95325.47;;;9.72;67.76
52957;BME280;38819;42.692;23.342;2023-04-23T04:30:00;95327.06;;;9.73;67.78
52957;BME280;38819;42.692;23.342;2023-04-23T04:32:26;95328.66;;;9.74;68.11
52957;BME280;38819;42.692;23.342;2023-04-23T04:34:52;95317.59;;;9.76;67.85
52957;BME280;38819;42.692;23.342;2023-04-23T04:37:18;95325.13;;;9.79;68.06
52957;BME280;38819;42.692;23.342;2023-04-23T04:39:44;95325.53;;;9.91;67.54
52957;BME280;38819;42.692;23.342;2023-04-23T04:42:10;95327.09;;;9.97;67.66
52957;BME280;38819;42.692;23.342;2023-04-23T04:44:37;95334.94;;;9.94;67.83
52957;BME280;38819;42.692;23.342;2023-04-23T04:47:03;95332.22;;;9.99;67.53
52957;BME280;38819;42.692;23.342;2023-04-23T04:49:28;95332.69;;;10.06;67.20
52957;BME280;38819;42.692;23.342;2023-04-23T04:51:53;95340.72;;;10.11;67.47
52957;BME280;38819;42.692;23.342;2023-04-23T04:54:19;95349.22;;;10.24;67.19
52957;BME280;38819;42.692;23.342;2023-04-23T04:56:45;95344.56;;;10.34;66.86
52957;BME280;38819;42.692;23.342;2023-04-23T04:59:11;95342.81;;;10.44;66.50
52957;BME280;38819;42.692;23.342;2023-04-23T05:01:36;95339.81;;;10.45;66.01
52957;BME280;38819;42.692;23.342;2023-04-23T05:04:02;95348.34;;;10.57;65.77
52957;BME280;38819;42.692;23.342;2023-04-23T05:06:28;95347.00;;;10.55;65.85
52957;BME280;38819;42.692;23.342;2023-04-23T05:08:53;95343.16;;;10.61;65.38
52957;BME280;38819;42.692;23.342;2023-04-23T05:11:19;95346.78;;;10.51;65.52
52957;BME280;38819;42.692;23.342;2023-04-23T05:13:46;95344.75;;;10.62;65.60
52957;BME280;38819;42.692;23.342;2023-04-23T05:16:11;95345.31;;;10.59;65.70
52957;BME280;38819;42.692;23.342;2023-04-23T05:18:37;95350.22;;;10.57;65.47
52957;BME280;38819;42.692;23.342;2023-04-23T05:21:04;95351.25;;;10.61;65.68
52957;BME280;38819;42.692;23.342;2023-04-23T05:23:30;95353.19;;;10.55;65.80
52957;BME280;38819;42.692;23.342;2023-04-23T05:25:56;95346.25;;;10.49;65.84
52957;BME280;38819;42.692;23.342;2023-04-23T05:28:23;95352.31;;;10.41;66.42
52957;BME280;38819;42.692;23.342;2023-04-23T05:30:49;95354.53;;;10.34;66.53
52957;BME280;38819;42.692;23.342;2023-04-23T05:33:15;95357.41;;;10.13;67.19
52957;BME280;38819;42.692;23.342;2023-04-23T05:35:41;95350.59;;;10.21;67.29
52957;BME280;38819;42.692;23.342;2023-04-23T05:38:06;95354.72;;;10.13;67.79
52957;BME280;38819;42.692;23.342;2023-04-23T05:40:32;95352.13;;;10.27;67.41
52957;BME280;38819;42.692;23.342;2023-04-23T05:42:58;95350.78;;;10.30;67.45
52957;BME280;38819;42.692;23.342;2023-04-23T05:45:23;95350.94;;;10.14;67.91
52957;BME280;38819;42.692;23.342;2023-04-23T05:47:48;95344.66;;;9.95;68.45
52957;BME280;38819;42.692;23.342;2023-04-23T05:50:14;95356.41;;;9.80;69.11
52957;BME280;38819;42.692;23.342;2023-04-23T05:52:39;95351.06;;;9.75;69.53
52957;BME280;38819;42.692;23.342;2023-04-23T05:55:06;95353.38;;;9.87;69.30
52957;BME280;38819;42.692;23.342;2023-04-23T05:57:33;95360.75;;;10.05;68.61
52957;BME280;38819;42.692;23.342;2023-04-23T05:59:59;95354.94;;;10.17;68.42
52957;BME280;38819;42.692;23.342;2023-04-23T06:02:24;95357.13;;;10.15;68.86
52957;BME280;38819;42.692;23.342;2023-04-23T06:04:50;95354.50;;;10.10;69.02
52957;BME280;38819;42.692;23.342;2023-04-23T06:07:16;95361.69;;;10.19;69.09
52957;BME280;38819;42.692;23.342;2023-04-23T06:09:41;95359.22;;;10.23;69.02
52957;BME280;38819;42.692;23.342;2023-04-23T06:12:06;95359.56;;;10.16;69.32
52957;BME280;38819;42.692;23.342;2023-04-23T06:14:32;95355.09;;;10.31;68.88
52957;BME280;38819;42.692;23.342;2023-04-23T06:16:57;95358.00;;;10.40;68.94
52957;BME280;38819;42.692;23.342;2023-04-23T06:19:23;95346.97;;;10.36;68.78
52957;BME280;38819;42.692;23.342;2023-04-23T06:21:52;95360.00;;;10.53;68.59
52957;BME280;38819;42.692;23.342;2023-04-23T06:24:17;95344.16;;;10.65;68.17
52957;BME280;38819;42.692;23.342;2023-04-23T06:26:43;95350.91;;;10.87;67.35
52957;BME280;38819;42.692;23.342;2023-04-23T06:29:09;95355.38;;;10.97;67.19
52957;BME280;38819;42.692;23.342;2023-04-23T06:31:34;95349.63;;;11.03;66.86
52957;BME280;38819;42.692;23.342;2023-04-23T06:34:00;95353.50;;;11.16;66.88
52957;BME280;38819;42.692;23.342;2023-04-23T06:36:26;95357.63;;;11.27;66.44
52957;BME280;38819;42.692;23.342;2023-04-23T06:38:51;95350.47;;;11.37;66.63
52957;BME280;38819;42.692;23.342;2023-04-23T06:41:17;95356.03;;;11.45;66.36
52957;BME280;38819;42.692;23.342;2023-04-23T06:43:42;95352.16;;;11.52;66.10
52957;BME280;38819;42.692;23.342;2023-04-23T06:46:08;95351.66;;;11.49;66.28
52957;BME280;38819;42.692;23.342;2023-04-23T06:48:33;95348.94;;;11.49;66.68
52957;BME280;38819;42.692;23.342;2023-04-23T06:50:59;95348.97;;;11.63;66.38
52957;BME280;38819;42.692;23.342;2023-04-23T06:53:24;95345.63;;;11.53;66.91
52957;BME280;38819;42.692;23.342;2023-04-23T06:55:50;95345.47;;;11.63;66.62
52957;BME280;38819;42.692;23.342;2023-04-23T06:58:16;95347.16;;;11.59;67.14
52957;BME280;38819;42.692;23.342;2023-04-23T07:00:42;95343.09;;;11.42;67.50
52957;BME280;38819;42.692;23.342;2023-04-23T07:03:07;95347.63;;;11.47;67.93
52957;BME280;38819;42.692;23.342;2023-04-23T07:05:33;95344.31;;;11.50;67.57
52957;BME280;38819;42.692;23.342;2023-04-23T07:07:58;95347.91;;;11.64;67.36
52957;BME280;38819;42.692;23.342;2023-04-23T07:10:24;95346.31;;;11.77;67.49
52957;BME280;38819;42.692;23.342;2023-04-23T07:12:49;95335.00;;;11.89;66.78
52957;BME280;38819;42.692;23.342;2023-04-23T07:15:15;95349.81;;;11.97;66.41
52957;BME280;38819;42.692;23.342;2023-04-23T07:17:40;95343.13;;;11.89;66.57
52957;BME280;38819;42.692;23.342;2023-04-23T07:20:06;95339.81;;;11.78;66.68
52957;BME280;38819;42.692;23.342;2023-04-23T07:22:33;95341.38;;;11.98;66.10
52957;BME280;38819;42.692;23.342;2023-04-23T07:24:59;95334.69;;;12.10;66.12
52957;BME280;38819;42.692;23.342;2023-04-23T07:27:25;95339.81;;;12.11;66.03
52957;BME280;38819;42.692;23.342;2023-04-23T07:29:51;95334.59;;;12.15;66.25
52957;BME280;38819;42.692;23.342;2023-04-23T07:32:16;95326.66;;;12.32;65.68
52957;BME280;38819;42.692;23.342;2023-04-23T07:34:42;95323.75;;;12.42;65.30
52957;BME280;38819;42.692;23.342;2023-04-23T07:37:07;95334.81;;;12.60;64.50
52957;BME280;38819;42.692;23.342;2023-04-23T07:39:33;95324.16;;;12.64;64.61
52957;BME280;38819;42.692;23.342;2023-04-23T07:41:59;95328.16;;;12.80;63.93
52957;BME280;38819;42.692;23.342;2023-04-23T07:44:26;95328.34;;;12.84;63.53
52957;BME280;38819;42.692;23.342;2023-04-23T07:46:52;95325.72;;;12.92;63.72
52957;BME280;38819;42.692;23.342;2023-04-23T07:49:17;95332.22;;;13.05;63.20
52957;BME280;38819;42.692;23.342;2023-04-23T07:51:42;95334.28;;;13.22;62.73
52957;BME280;38819;42.692;23.342;2023-04-23T07:54:08;95333.94;;;13.38;62.34
52957;BME280;38819;42.692;23.342;2023-04-23T07:56:34;95331.25;;;13.24;62.45
52957;BME280;38819;42.692;23.342;2023-04-23T07:59:00;95334.47;;;13.26;62.88
52957;BME280;38819;42.692;23.342;2023-04-23T08:01:27;95331.44;;;13.27;62.50
52957;BME280;38819;42.692;23.342;2023-04-23T08:03:53;95331.38;;;13.32;62.48
52957;BME280;38819;42.692;23.342;2023-04-23T08:06:21;95332.25;;;13.42;62.10
52957;BME280;38819;42.692;23.342;2023-04-23T08:08:46;95321.22;;;13.38;62.07
52957;BME280;38819;42.692;23.342;2023-04-23T08:11:11;95328.91;;;13.31;62.11
52957;BME280;38819;42.692;23.342;2023-04-23T08:13:37;95328.25;;;13.25;62.11
52957;BME280;38819;42.692;23.342;2023-04-23T08:16:02;95328.34;;;13.34;61.73
52957;BME280;38819;42.692;23.342;2023-04-23T08:18:28;95331.25;;;13.38;61.37
52957;BME280;38819;42.692;23.342;2023-04-23T08:20:54;95322.56;;;13.49;61.25
52957;BME280;38819;42.692;23.342;2023-04-23T08:23:20;95323.56;;;13.53;61.67
52957;BME280;38819;42.692;23.342;2023-04-23T08:25:46;95325.31;;;13.36;61.53
52957;BME280;38819;42.692;23.342;2023-04-23T08:28:11;95318.38;;;13.43;61.29
52957;BME280;38819;42.692;23.342;2023-04-23T08:30:37;95322.97;;;13.43;61.21
52957;BME280;38819;42.692;23.342;2023-04-23T08:33:02;95316.31;;;13.49;61.33
52957;BME280;38819;42.692;23.342;2023-04-23T08:35:28;95310.94;;;13.58;60.72
52957;BME280;38819;42.692;23.342;2023-04-23T08:37:54;95313.22;;;13.64;60.45
52957;BME280;38819;42.692;23.342;2023-04-23T08:40:19;95304.56;;;13.53;59.84
52957;BME280;38819;42.692;23.342;2023-04-23T08:45:17;95299.31;;;13.57;59.98
52957;BME280;38819;42.692;23.342;2023-04-23T08:47:43;95298.91;;;13.73;59.86
52957;BME280;38819;42.692;23.342;2023-04-23T08:50:13;95303.91;;;13.79;60.08
52957;BME280;38819;42.692;23.342;2023-04-23T08:52:40;95299.16;;;13.85;59.72
52957;BME280;38819;42.692;23.342;2023-04-23T08:55:08;95296.81;;;13.92;59.12
52957;BME280;38819;42.692;23.342;2023-04-23T08:57:39;95292.47;;;13.91;58.83
52957;BME280;38819;42.692;23.342;2023-04-23T09:00:07;95292.03;;;13.98;58.57
52957;BME280;38819;42.692;23.342;2023-04-23T09:02:34;95285.78;;;13.88;58.38
52957;BME280;38819;42.692;23.342;2023-04-23T09:05:04;95287.88;;;13.92;58.62
52957;BME280;38819;42.692;23.342;2023-04-23T09:07:30;95284.38;;;14.00;58.45
52957;BME280;38819;42.692;23.342;2023-04-23T09:09:55;95293.69;;;14.07;58.27
52957;BME280;38819;42.692;23.342;2023-04-23T09:12:21;95282.69;;;14.21;58.23
52957;BME280;38819;42.692;23.342;2023-04-23T09:14:49;95286.88;;;14.27;57.35
52957;BME280;38819;42.692;23.342;2023-04-23T09:17:14;95284.25;;;14.45;57.00
52957;BME280;38819;42.692;23.342;2023-04-23T09:19:40;95288.09;;;14.53;56.42
52957;BME280;38819;42.692;23.342;2023-04-23T09:22:06;95282.03;;;14.56;56.58
52957;BME280;38819;42.692;23.342;2023-04-23T09:24:33;95279.00;;;14.57;55.80
52957;BME280;38819;42.692;23.342;2023-04-23T09:26:58;95278.81;;;14.54;55.02
52957;BME280;38819;42.692;23.342;2023-04-23T09:29:24;95278.38;;;14.60;55.20
52957;BME280;38819;42.692;23.342;2023-04-23T09:31:54;95281.44;;;14.68;55.23
52957;BME280;38819;42.692;23.342;2023-04-23T09:34:22;95278.09;;;14.79;55.18
52957;BME280;38819;42.692;23.342;2023-04-23T09:36:50;95268.34;;;14.96;54.52
52957;BME280;38819;42.692;23.342;2023-04-23T09:39:18;95267.41;;;15.09;53.81
52957;BME280;38819;42.692;23.342;2023-04-23T09:41:44;95271.25;;;15.17;53.47
52957;BME280;38819;42.692;23.342;2023-04-23T09:44:11;95262.44;;;15.20;53.44
52957;BME280;38819;42.692;23.342;2023-04-23T09:46:42;95258.09;;;15.36;53.61
52957;BME280;38819;42.692;23.342;2023-04-23T09:49:08;95245.63;;;15.44;53.36
52957;BME280;38819;42.692;23.342;2023-04-23T09:51:42;95245.41;;;15.58;52.98
52957;BME280;38819;42.692;23.342;2023-04-23T09:56:41;95246.56;;;15.57;51.50
52957;BME280;38819;42.692;23.342;2023-04-23T09:59:24;95229.13;;;15.41;51.38
52957;BME280;38819;42.692;23.342;2023-04-23T10:01:50;95246.25;;;15.41;51.71
52957;BME280;38819;42.692;23.342;2023-04-23T10:04:21;95232.78;;;15.53;51.57
52957;BME280;38819;42.692;23.342;2023-04-23T10:06:59;95228.91;;;15.63;50.25
52957;BME280;38819;42.692;23.342;2023-04-23T10:09:26;95232.75;;;15.71;49.84
52957;BME280;38819;42.692;23.342;2023-04-23T10:11:54;95216.56;;;15.74;49.52
52957;BME280;38819;42.692;23.342;2023-04-23T10:14:21;95226.47;;;15.88;48.88
52957;BME280;38819;42.692;23.342;2023-04-23T10:16:50;95222.47;;;15.85;48.50
52957;BME280;38819;42.692;23.342;2023-04-23T10:19:18;95203.75;;;15.84;48.33
52957;BME280;38819;42.692;23.342;2023-04-23T10:21:48;95203.13;;;15.78;48.13
52957;BME280;38819;42.692;23.342;2023-04-23T10:24:18;95202.16;;;15.83;47.74
52957;BME280;38819;42.692;23.342;2023-04-23T10:26:46;95203.13;;;15.78;47.46
52957;BME280;38819;42.692;23.342;2023-04-23T10:29:13;95209.84;;;15.81;47.69
52957;BME280;38819;42.692;23.342;2023-04-23T10:31:41;95198.44;;;15.87;47.62
52957;BME280;38819;42.692;23.342;2023-04-23T10:34:09;95196.66;;;15.91;45.36
52957;BME280;38819;42.692;23.342;2023-04-23T10:36:36;95189.59;;;15.99;45.01
52957;BME280;38819;42.692;23.342;2023-04-23T10:39:02;95188.41;;;16.09;44.79
52957;BME280;38819;42.692;23.342;2023-04-23T10:41:37;95202.03;;;16.09;44.94
52957;BME280;38819;42.692;23.342;2023-04-23T10:44:10;95185.19;;;16.16;44.26
52957;BME280;38819;42.692;23.342;2023-04-23T10:46:36;95189.63;;;16.20;43.27
52957;BME280;38819;42.692;23.342;2023-04-23T10:49:14;95181.78;;;16.19;42.79
52957;BME280;38819;42.692;23.342;2023-04-23T10:51:41;95171.22;;;16.17;43.13
52957;BME280;38819;42.692;23.342;2023-04-23T10:54:12;95165.25;;;16.24;42.76
52957;BME280;38819;42.692;23.342;2023-04-23T10:56:39;95165.41;;;16.27;42.95
52957;BME280;38819;42.692;23.342;2023-04-23T10:59:17;95163.47;;;16.28;42.41
52957;BME280;38819;42.692;23.342;2023-04-23T11:01:51;95155.88;;;16.34;42.27
52957;BME280;38819;42.692;23.342;2023-04-23T11:04:27;95165.28;;;16.45;42.43
52957;BME280;38819;42.692;23.342;2023-04-23T11:07:09;95167.47;;;16.52;40.05
52957;BME280;38819;42.692;23.342;2023-04-23T11:09:44;95157.19;;;16.57;39.30
52957;BME280;38819;42.692;23.342;2023-04-23T11:14:50;95148.66;;;16.38;36.98
52957;BME280;38819;42.692;23.342;2023-04-23T11:17:17;95135.41;;;16.48;39.48
52957;BME280;38819;42.692;23.342;2023-04-23T11:20:05;95135.00;;;16.59;39.30
52957;BME280;38819;42.692;23.342;2023-04-23T11:22:39;95125.50;;;16.65;41.86
52957;BME280;38819;42.692;23.342;2023-04-23T11:25:10;95128.31;;;16.77;41.42
52957;BME280;38819;42.692;23.342;2023-04-23T11:27:41;95127.59;;;16.89;39.71
52957;BME280;38819;42.692;23.342;2023-04-23T11:30:14;95124.66;;;16.94;39.91
52957;BME280;38819;42.692;23.342;2023-04-23T11:32:41;95130.28;;;17.10;39.02
52957;BME280;38819;42.692;23.342;2023-04-23T11:35:08;95122.13;;;17.22;37.31
52957;BME280;38819;42.692;23.342;2023-04-23T11:37:42;95111.78;;;17.28;37.33
52957;BME280;38819;42.692;23.342;2023-04-23T11:40:09;95121.03;;;17.36;38.07
52957;BME280;38819;42.692;23.342;2023-04-23T11:42:43;95117.03;;;17.46;38.29
52957;BME280;38819;42.692;23.342;2023-04-23T11:45:21;95120.72;;;17.50;38.20
52957;BME280;38819;42.692;23.342;2023-04-23T11:47:52;95115.34;;;17.41;37.24
52957;BME280;38819;42.692;23.342;2023-04-23T11:50:22;95116.81;;;17.38;37.14
52957;BME280;38819;42.692;23.342;2023-04-23T11:52:47;95103.38;;;17.33;37.57
52957;BME280;38819;42.692;23.342;2023-04-23T11:55:13;95104.31;;;17.37;37.21
52957;BME280;38819;42.692;23.342;2023-04-23T11:57:45;95097.38;;;17.40;35.85
52957;BME280;38819;42.692;23.342;2023-04-23T12:00:21;95100.47;;;17.51;35.76
52957;BME280;38819;42.692;23.342;2023-04-23T12:02:58;95091.34;;;17.47;34.53
52957;BME280;38819;42.692;23.342;2023-04-23T12:05:28;95089.41;;;17.47;33.77
52957;BME280;38819;42.692;23.342;2023-04-23T12:08:08;95088.94;;;17.45;33.96
52957;BME280;38819;42.692;23.342;2023-04-23T12:11:02;95093.84;;;17.52;35.90
52957;BME280;38819;42.692;23.342;2023-04-23T12:13:30;95091.00;;;17.48;35.53
52957;BME280;38819;42.692;23.342;2023-04-23T12:16:03;95089.72;;;17.33;34.60
52957;BME280;38819;42.692;23.342;2023-04-23T12:18:39;95082.44;;;17.25;35.06
52957;BME280;38819;42.692;23.342;2023-04-23T12:21:10;95084.72;;;17.23;35.35
52957;BME280;38819;42.692;23.342;2023-04-23T12:23:38;95082.88;;;17.27;35.89
52957;BME280;38819;42.692;23.342;2023-04-23T12:26:09;95081.44;;;17.30;34.67
52957;BME280;38819;42.692;23.342;2023-04-23T12:31:20;95076.97;;;17.25;34.58
52957;BME280;38819;42.692;23.342;2023-04-23T12:33:46;95076.88;;;17.21;34.90
52957;BME280;38819;42.692;23.342;2023-04-23T12:36:14;95067.22;;;17.24;35.97
52957;BME280;38819;42.692;23.342;2023-04-23T12:38:40;95062.53;;;17.25;35.97
52957;BME280;38819;42.692;23.342;2023-04-23T12:41:07;95064.81;;;17.22;35.69
52957;BME280;38819;42.692;23.342;2023-04-23T12:43:32;95066.06;;;17.25;36.04
52957;BME280;38819;42.692;23.342;2023-04-23T12:45:58;95058.81;;;17.29;36.18
52957;BME280;38819;42.692;23.342;2023-04-23T12:48:23;95061.31;;;17.34;35.71
52957;BME280;38819;42.692;23.342;2023-04-23T12:50:48;95052.06;;;17.27;34.57
52957;BME280;38819;42.692;23.342;2023-04-23T12:53:14;95064.50;;;17.24;34.71
52957;BME280;38819;42.692;23.342;2023-04-23T12:55:39;95062.22;;;17.26;34.90
52957;BME280;38819;42.692;23.342;2023-04-23T12:58:07;95065.94;;;17.21;35.18
52957;BME280;38819;42.692;23.342;2023-04-23T13:00:33;95062.00;;;17.31;35.42
52957;BME280;38819;42.692;23.342;2023-04-23T13:02:58;95063.94;;;17.31;35.60